Weather History for Independence, KS

Change the Weather History Date:

Friday, March 8, 2013

  Actual Average (KCFV) Record (KCFV)
Temperature  
Mean Temperature 51 °F -  
Max Temperature 60 °F 50 °F 77 °F (2004)
Min Temperature 42 °F 29 °F 15 °F (2008)
Degree Days  
Heating Degree Days 14    
Growing Degree Days 1 (Base 50)    
Moisture  
Dew Point 37 °F    
Average Humidity 58    
Maximum Humidity 72    
Minimum Humidity 47    
Precipitation  
Precipitation 0.00 in - - ()
Sea Level Pressure  
Sea Level Pressure 30.09 in    
Wind  
Wind Speed 11 mph (SSE)    
Max Wind Speed 24 mph    
Max Gust Speed 30 mph    
Visibility 10 miles    
Events      
Averages and records for this station are not official NWS values.
T = Trace of Precipitation, MM = Missing Value Source: NWS Daily Summary

Daily Weather History Graph

Daily Weather History Graph

Search for Another Location

Airport:

Trip Planner

Search our weather history database for the weather conditions in past years. The results will help you decide how hot, cold, wet, or windy it might be!

Date:

Astronomy

Mar. 08, 2013 Rise Set
Actual Time 6:43 AM CST 6:24 PM CST
Civil Twilight 6:17 AM CST 6:50 PM CST
Nautical Twilight 5:47 AM CST 7:20 PM CST
Astronomical Twilight 5:17 AM CST 7:50 PM CST
Moon 4:25 AM CST (3/8) 3:23 PM CST (3/8)
Length of Visible Light 12h 32m
Length of Day
11h 40m
Waning Crescent, 11% of the Moon is Illuminated
Mar 8
Waning Crescent
Mar 11
New
Mar 19
First Quarter
Mar 27
Full
Apr 2
Last Quarter

Hourly Weather History & Observations

Time (CST) Temp. Windchill Dew Point Humidity Pressure Visibility Wind Dir Wind Speed Gust Speed Precip Events Conditions
12:15 AM 44.6 °F 40.2 °F 32.0 °F 61% 30.15 in 10.0 mi ESE 8.1 mph - N/A   Clear
12:35 AM 42.8 °F 37.5 °F 32.0 °F 66% 30.15 in 10.0 mi ESE 9.2 mph - N/A   Clear
12:55 AM 44.6 °F 40.2 °F 32.0 °F 61% 30.14 in 10.0 mi SE 8.1 mph - N/A   Clear
1:15 AM 44.6 °F 39.7 °F 32.0 °F 61% 30.15 in 10.0 mi ESE 9.2 mph - N/A   Clear
1:35 AM 44.6 °F 40.2 °F 32.0 °F 61% 30.15 in 10.0 mi ESE 8.1 mph - N/A   Clear
1:55 AM 42.8 °F 38.6 °F 32.0 °F 66% 30.15 in 10.0 mi ESE 6.9 mph - N/A   Clear
2:15 AM 42.8 °F 38.6 °F 32.0 °F 66% 30.15 in 7.0 mi ESE 6.9 mph - N/A   Clear
2:35 AM 42.8 °F 39.3 °F 32.0 °F 66% 30.15 in 7.0 mi ESE 5.8 mph - N/A   Clear
2:55 AM 44.6 °F 40.7 °F 32.0 °F 61% 30.15 in 7.0 mi ESE 6.9 mph - N/A   Clear
3:15 AM 44.6 °F 40.2 °F 32.0 °F 61% 30.14 in 7.0 mi ESE 8.1 mph - N/A   Clear
3:35 AM 44.6 °F 40.2 °F 32.0 °F 61% 30.13 in 10.0 mi ESE 8.1 mph - N/A   Clear
3:55 AM 44.6 °F 40.2 °F 32.0 °F 61% 30.14 in 10.0 mi ESE 8.1 mph - N/A   Clear
4:15 AM 44.6 °F 39.7 °F 32.0 °F 61% 30.15 in 10.0 mi SE 9.2 mph - N/A   Clear
4:35 AM 44.6 °F 39.2 °F 32.0 °F 61% 30.15 in 10.0 mi SE 10.4 mph - N/A   Clear
4:55 AM 44.6 °F 39.2 °F 32.0 °F 61% 30.15 in 10.0 mi SE 10.4 mph - N/A   Clear
5:15 AM 44.6 °F 38.8 °F 32.0 °F 61% 30.15 in 10.0 mi SE 11.5 mph - N/A   Clear
5:35 AM 44.6 °F 38.8 °F 32.0 °F 61% 30.15 in 10.0 mi SE 11.5 mph - N/A   Clear
5:55 AM 44.6 °F 38.8 °F 32.0 °F 61% 30.15 in 10.0 mi SE 11.5 mph - N/A   Clear
6:15 AM 44.6 °F 38.8 °F 32.0 °F 61% 30.15 in 10.0 mi SE 11.5 mph - N/A   Clear
6:35 AM 44.6 °F 39.2 °F 32.0 °F 61% 30.16 in 10.0 mi SE 10.4 mph - N/A   Clear
6:55 AM 44.6 °F 39.2 °F 32.0 °F 61% 30.15 in 10.0 mi SE 10.4 mph 17.3 mph N/A   Clear
7:15 AM 44.6 °F 38.8 °F 32.0 °F 61% 30.15 in 10.0 mi SE 11.5 mph - N/A   Clear
7:35 AM 46.4 °F 41.5 °F 32.0 °F 57% 30.16 in 10.0 mi SE 10.4 mph - N/A   Clear
7:55 AM 46.4 °F 41.1 °F 32.0 °F 57% 30.16 in 10.0 mi SE 11.5 mph - N/A   Clear
8:15 AM 46.4 °F 40.7 °F 32.0 °F 57% 30.16 in 10.0 mi SE 12.7 mph - N/A   Clear
8:35 AM 48.2 °F - 32.0 °F 54% 30.17 in 10.0 mi SSE 12.7 mph 19.6 mph N/A   Clear
8:55 AM 50.0 °F - 32.0 °F 50% 30.17 in 10.0 mi SSE 13.8 mph - N/A   Clear
9:15 AM 50.0 °F - 33.8 °F 54% 30.15 in 10.0 mi SSE 13.8 mph 19.6 mph N/A   Clear
9:35 AM 53.6 °F - 33.8 °F 47% 30.15 in 10.0 mi SSE 17.3 mph 21.9 mph N/A   Clear
9:55 AM 53.6 °F - 33.8 °F 47% 30.15 in 10.0 mi South 15.0 mph 20.7 mph N/A   Clear
10:15 AM 53.6 °F - 35.6 °F 51% 30.15 in 10.0 mi South 15.0 mph - N/A   Clear
10:35 AM 55.4 °F - 37.4 °F 51% 30.15 in 10.0 mi South 16.1 mph 25.3 mph N/A   Clear
10:55 AM 57.2 °F - 37.4 °F 48% 30.15 in 10.0 mi South 16.1 mph 21.9 mph N/A   Scattered Clouds
11:15 AM 59.0 °F - 41.0 °F 51% 30.14 in 10.0 mi South 17.3 mph 25.3 mph N/A   Clear
11:35 AM 59.0 °F - 41.0 °F 51% 30.14 in 10.0 mi South 16.1 mph - N/A   Scattered Clouds
11:55 AM 59.0 °F - 41.0 °F 51% 30.13 in 10.0 mi SSE 17.3 mph 23.0 mph N/A   Scattered Clouds
12:15 PM 60.8 °F - 42.8 °F 52% 30.12 in 10.0 mi SSE 19.6 mph 26.5 mph N/A   Clear
12:35 PM 60.8 °F - 42.8 °F 52% 30.11 in 10.0 mi SSE 23.0 mph 28.8 mph N/A   Scattered Clouds
12:55 PM 60.8 °F - 44.6 °F 55% 30.10 in 10.0 mi South 17.3 mph 24.2 mph N/A   Mostly Cloudy
1:15 PM 59.0 °F - 42.8 °F 55% 30.10 in 10.0 mi SSE 19.6 mph 26.5 mph N/A   Overcast
1:35 PM 55.4 °F - 42.8 °F 63% 30.09 in 10.0 mi South 15.0 mph 21.9 mph N/A   Overcast
1:55 PM 53.6 °F - 42.8 °F 67% 30.08 in 10.0 mi SSE 19.6 mph 26.5 mph N/A   Overcast
2:15 PM 53.6 °F - 44.6 °F 72% 30.07 in 10.0 mi SSE 23.0 mph - N/A   Overcast
2:35 PM 53.6 °F - 44.6 °F 72% 30.06 in 10.0 mi South 21.9 mph 26.5 mph N/A   Overcast
2:55 PM 53.6 °F - 44.6 °F 72% 30.07 in 10.0 mi South 13.8 mph 21.9 mph N/A   Overcast
3:15 PM 53.6 °F - 44.6 °F 72% 30.06 in 10.0 mi South 17.3 mph 21.9 mph N/A   Overcast
3:35 PM 53.6 °F - 44.6 °F 72% 30.06 in 10.0 mi SSE 16.1 mph - N/A   Overcast
3:55 PM 53.6 °F - 44.6 °F 72% 30.06 in 10.0 mi South 16.1 mph 21.9 mph N/A   Overcast
4:15 PM 53.6 °F - 44.6 °F 72% 30.05 in 10.0 mi SSE 15.0 mph 20.7 mph N/A   Overcast
4:35 PM 53.6 °F - 44.6 °F 72% 30.04 in 10.0 mi SSE 15.0 mph 25.3 mph N/A   Overcast
4:55 PM 55.4 °F - 42.8 °F 63% 30.03 in 10.0 mi SSE 15.0 mph 19.6 mph N/A   Overcast
5:15 PM 55.4 °F - 42.8 °F 63% 30.04 in 10.0 mi SSE 13.8 mph - N/A   Overcast
5:35 PM 55.4 °F - 41.0 °F 58% 30.03 in 10.0 mi SSE 15.0 mph - N/A   Overcast
5:55 PM 55.4 °F - 41.0 °F 58% 30.03 in 10.0 mi SSE 11.5 mph - N/A   Overcast
6:15 PM 53.6 °F - 41.0 °F 62% 30.03 in 10.0 mi SE 9.2 mph - N/A   Overcast
6:35 PM 53.6 °F - 39.2 °F 58% 30.03 in 10.0 mi SE 8.1 mph - N/A   Overcast
6:55 PM 53.6 °F - 37.4 °F 54% 30.03 in 10.0 mi SSE 10.4 mph - N/A   Overcast
7:15 PM 55.4 °F - 35.6 °F 47% 30.03 in 10.0 mi SE 10.4 mph - N/A   Overcast
7:35 PM 53.6 °F - 35.6 °F 51% 30.03 in 10.0 mi SE 8.1 mph - N/A   Overcast
7:55 PM 53.6 °F - 35.6 °F 51% 30.03 in 10.0 mi SE 8.1 mph - N/A   Overcast
8:15 PM 53.6 °F - 35.6 °F 51% 30.02 in 10.0 mi SE 6.9 mph - N/A   Overcast
8:35 PM 53.6 °F - 35.6 °F 51% 30.02 in 10.0 mi SE 9.2 mph - N/A   Overcast
8:55 PM 53.6 °F - 35.6 °F 51% 30.03 in 10.0 mi SSE 9.2 mph - N/A   Overcast
9:15 PM 55.4 °F - 37.4 °F 51% 30.02 in 10.0 mi SSE 9.2 mph - N/A   Overcast
9:35 PM 55.4 °F - 37.4 °F 51% 30.01 in 10.0 mi SSE 10.4 mph - N/A   Overcast
9:55 PM 55.4 °F - 37.4 °F 51% 30.01 in 10.0 mi SSE 13.8 mph - N/A   Overcast
10:15 PM 55.4 °F - 37.4 °F 51% 30.00 in 10.0 mi SSE 15.0 mph 19.6 mph N/A   Overcast
10:35 PM 55.4 °F - 37.4 °F 51% 30.00 in 10.0 mi South 15.0 mph - N/A   Overcast
10:55 PM 55.4 °F - 37.4 °F 51% 29.99 in 10.0 mi South 18.4 mph 25.3 mph N/A   Overcast
11:15 PM 57.2 °F - 37.4 °F 48% 29.96 in 10.0 mi SSE 20.7 mph 25.3 mph N/A   Overcast
11:35 PM 57.2 °F - 37.4 °F 48% 29.96 in 7.0 mi South 24.2 mph 28.8 mph N/A   Overcast
11:55 PM 57.2 °F - 37.4 °F 48% 29.97 in 10.0 mi South 20.7 mph 29.9 mph N/A   Overcast